sensor_id;sensor_type;location;lat;lon;timestamp;P1;durP1;ratioP1;P2;durP2;ratioP2
56457;SDS011;42360;42.918;12.366;2022-09-09T00:06:50;8.00;;;2.55;;
56457;SDS011;42360;42.918;12.366;2022-09-09T00:10:16;5.68;;;2.78;;
56457;SDS011;42360;42.918;12.366;2022-09-09T00:12:41;8.20;;;3.08;;
56457;SDS011;42360;42.918;12.366;2022-09-09T00:15:22;7.65;;;3.22;;
56457;SDS011;42360;42.918;12.366;2022-09-09T00:20:55;6.68;;;3.45;;
56457;SDS011;42360;42.918;12.366;2022-09-09T00:23:28;6.55;;;3.83;;
56457;SDS011;42360;42.918;12.366;2022-09-09T00:26:04;8.30;;;3.65;;
56457;SDS011;42360;42.918;12.366;2022-09-09T00:29:22;10.48;;;3.40;;
56457;SDS011;42360;42.918;12.366;2022-09-09T00:31:34;9.68;;;3.95;;
56457;SDS011;42360;42.918;12.366;2022-09-09T00:36:38;5.93;;;2.60;;
56457;SDS011;42360;42.918;12.366;2022-09-09T00:39:05;7.88;;;3.55;;
56457;SDS011;42360;42.918;12.366;2022-09-09T00:41:44;8.52;;;3.30;;
56457;SDS011;42360;42.918;12.366;2022-09-09T00:44:34;7.75;;;2.67;;
56457;SDS011;42360;42.918;12.366;2022-09-09T00:47:46;3.83;;;2.60;;
56457;SDS011;42360;42.918;12.366;2022-09-09T00:52:56;4.97;;;2.72;;
56457;SDS011;42360;42.918;12.366;2022-09-09T00:58:38;4.57;;;2.70;;
56457;SDS011;42360;42.918;12.366;2022-09-09T01:01:04;6.22;;;2.67;;
56457;SDS011;42360;42.918;12.366;2022-09-09T01:03:34;6.80;;;4.18;;
56457;SDS011;42360;42.918;12.366;2022-09-09T01:06:22;5.47;;;3.17;;
56457;SDS011;42360;42.918;12.366;2022-09-09T01:09:04;6.55;;;3.55;;
56457;SDS011;42360;42.918;12.366;2022-09-09T01:14:48;8.73;;;3.33;;
56457;SDS011;42360;42.918;12.366;2022-09-09T01:17:21;8.45;;;3.42;;
56457;SDS011;42360;42.918;12.366;2022-09-09T01:22:35;9.45;;;3.20;;
56457;SDS011;42360;42.918;12.366;2022-09-09T01:25:21;9.70;;;4.05;;
56457;SDS011;42360;42.918;12.366;2022-09-09T01:28:08;6.68;;;3.50;;
56457;SDS011;42360;42.918;12.366;2022-09-09T01:30:40;5.15;;;2.72;;
56457;SDS011;42360;42.918;12.366;2022-09-09T01:33:07;11.80;;;3.72;;
56457;SDS011;42360;42.918;12.366;2022-09-09T01:35:41;5.97;;;3.25;;
56457;SDS011;42360;42.918;12.366;2022-09-09T01:38:12;5.95;;;2.83;;
56457;SDS011;42360;42.918;12.366;2022-09-09T01:40:38;4.90;;;3.30;;
56457;SDS011;42360;42.918;12.366;2022-09-09T01:43:04;4.38;;;3.08;;
56457;SDS011;42360;42.918;12.366;2022-09-09T01:45:30;4.45;;;2.90;;
56457;SDS011;42360;42.918;12.366;2022-09-09T01:47:55;4.50;;;2.83;;
56457;SDS011;42360;42.918;12.366;2022-09-09T01:50:22;5.38;;;2.45;;
56457;SDS011;42360;42.918;12.366;2022-09-09T01:52:52;4.22;;;3.20;;
56457;SDS011;42360;42.918;12.366;2022-09-09T01:55:23;8.18;;;3.22;;
56457;SDS011;42360;42.918;12.366;2022-09-09T02:00:38;6.25;;;2.88;;
56457;SDS011;42360;42.918;12.366;2022-09-09T02:03:20;5.63;;;2.75;;
56457;SDS011;42360;42.918;12.366;2022-09-09T02:05:52;7.28;;;3.15;;
56457;SDS011;42360;42.918;12.366;2022-09-09T02:08:26;5.78;;;2.95;;
56457;SDS011;42360;42.918;12.366;2022-09-09T02:11:01;6.30;;;3.35;;
56457;SDS011;42360;42.918;12.366;2022-09-09T02:13:32;6.85;;;3.17;;
56457;SDS011;42360;42.918;12.366;2022-09-09T02:16:03;6.63;;;3.65;;
56457;SDS011;42360;42.918;12.366;2022-09-09T02:18:41;5.78;;;3.17;;
56457;SDS011;42360;42.918;12.366;2022-09-09T02:21:11;7.88;;;3.80;;
56457;SDS011;42360;42.918;12.366;2022-09-09T02:23:39;8.40;;;4.07;;
56457;SDS011;42360;42.918;12.366;2022-09-09T02:26:06;9.63;;;3.55;;
56457;SDS011;42360;42.918;12.366;2022-09-09T02:28:38;6.07;;;3.55;;
56457;SDS011;42360;42.918;12.366;2022-09-09T02:31:04;7.50;;;2.83;;
56457;SDS011;42360;42.918;12.366;2022-09-09T02:33:33;7.65;;;2.90;;
56457;SDS011;42360;42.918;12.366;2022-09-09T02:36:02;6.85;;;2.90;;
56457;SDS011;42360;42.918;12.366;2022-09-09T02:38:29;6.43;;;2.70;;
56457;SDS011;42360;42.918;12.366;2022-09-09T02:40:57;9.80;;;2.85;;
56457;SDS011;42360;42.918;12.366;2022-09-09T02:43:23;5.90;;;2.33;;
56457;SDS011;42360;42.918;12.366;2022-09-09T02:48:47;9.57;;;2.60;;
56457;SDS011;42360;42.918;12.366;2022-09-09T02:54:18;9.73;;;4.57;;
56457;SDS011;42360;42.918;12.366;2022-09-09T02:56:55;7.38;;;4.28;;
56457;SDS011;42360;42.918;12.366;2022-09-09T02:59:53;6.82;;;2.63;;
56457;SDS011;42360;42.918;12.366;2022-09-09T03:02:18;6.90;;;2.80;;
56457;SDS011;42360;42.918;12.366;2022-09-09T03:04:44;6.85;;;2.17;;
56457;SDS011;42360;42.918;12.366;2022-09-09T03:07:15;6.03;;;3.05;;
56457;SDS011;42360;42.918;12.366;2022-09-09T03:09:42;5.72;;;2.13;;
56457;SDS011;42360;42.918;12.366;2022-09-09T03:12:08;5.97;;;2.40;;
56457;SDS011;42360;42.918;12.366;2022-09-09T03:14:36;3.83;;;2.08;;
56457;SDS011;42360;42.918;12.366;2022-09-09T03:17:03;5.53;;;2.15;;
56457;SDS011;42360;42.918;12.366;2022-09-09T03:19:29;6.00;;;2.08;;
56457;SDS011;42360;42.918;12.366;2022-09-09T03:21:55;4.55;;;2.40;;
56457;SDS011;42360;42.918;12.366;2022-09-09T03:24:21;5.72;;;2.17;;
56457;SDS011;42360;42.918;12.366;2022-09-09T03:26:47;2.35;;;1.70;;
56457;SDS011;42360;42.918;12.366;2022-09-09T03:29:13;3.85;;;2.03;;
56457;SDS011;42360;42.918;12.366;2022-09-09T03:31:39;6.15;;;2.53;;
56457;SDS011;42360;42.918;12.366;2022-09-09T03:34:06;3.45;;;2.28;;
56457;SDS011;42360;42.918;12.366;2022-09-09T03:36:32;4.63;;;2.45;;
56457;SDS011;42360;42.918;12.366;2022-09-09T03:38:57;17.60;;;4.55;;
56457;SDS011;42360;42.918;12.366;2022-09-09T03:41:24;4.72;;;2.67;;
56457;SDS011;42360;42.918;12.366;2022-09-09T03:43:51;7.00;;;3.15;;
56457;SDS011;42360;42.918;12.366;2022-09-09T03:46:21;5.85;;;2.65;;
56457;SDS011;42360;42.918;12.366;2022-09-09T03:48:47;4.75;;;2.67;;
56457;SDS011;42360;42.918;12.366;2022-09-09T03:51:13;4.18;;;1.98;;
56457;SDS011;42360;42.918;12.366;2022-09-09T03:53:40;2.97;;;2.20;;
56457;SDS011;42360;42.918;12.366;2022-09-09T03:56:06;5.30;;;2.00;;
56457;SDS011;42360;42.918;12.366;2022-09-09T03:58:33;10.43;;;2.25;;
56457;SDS011;42360;42.918;12.366;2022-09-09T04:01:00;5.63;;;3.00;;
56457;SDS011;42360;42.918;12.366;2022-09-09T04:03:26;5.55;;;2.28;;
56457;SDS011;42360;42.918;12.366;2022-09-09T04:05:53;7.93;;;2.50;;
56457;SDS011;42360;42.918;12.366;2022-09-09T04:08:22;11.80;;;3.03;;
56457;SDS011;42360;42.918;12.366;2022-09-09T04:11:08;12.27;;;2.97;;
56457;SDS011;42360;42.918;12.366;2022-09-09T04:13:35;9.38;;;2.92;;
56457;SDS011;42360;42.918;12.366;2022-09-09T04:16:03;6.65;;;2.65;;
56457;SDS011;42360;42.918;12.366;2022-09-09T04:18:33;6.45;;;2.80;;
56457;SDS011;42360;42.918;12.366;2022-09-09T04:20:59;5.40;;;2.58;;
56457;SDS011;42360;42.918;12.366;2022-09-09T04:23:25;5.82;;;2.80;;
56457;SDS011;42360;42.918;12.366;2022-09-09T04:25:54;4.50;;;2.45;;
56457;SDS011;42360;42.918;12.366;2022-09-09T04:28:22;6.55;;;2.45;;
56457;SDS011;42360;42.918;12.366;2022-09-09T04:30:49;6.18;;;2.90;;
56457;SDS011;42360;42.918;12.366;2022-09-09T04:33:14;2.53;;;2.33;;
56457;SDS011;42360;42.918;12.366;2022-09-09T04:35:46;5.38;;;2.22;;
56457;SDS011;42360;42.918;12.366;2022-09-09T04:38:13;4.60;;;2.40;;
56457;SDS011;42360;42.918;12.366;2022-09-09T04:40:41;8.27;;;2.38;;
56457;SDS011;42360;42.918;12.366;2022-09-09T04:43:13;6.75;;;2.78;;
56457;SDS011;42360;42.918;12.366;2022-09-09T04:45:40;7.43;;;3.25;;
56457;SDS011;42360;42.918;12.366;2022-09-09T04:48:06;7.15;;;2.97;;
56457;SDS011;42360;42.918;12.366;2022-09-09T04:50:32;6.20;;;3.25;;
56457;SDS011;42360;42.918;12.366;2022-09-09T04:53:04;5.20;;;3.38;;
56457;SDS011;42360;42.918;12.366;2022-09-09T04:55:31;6.78;;;3.08;;
56457;SDS011;42360;42.918;12.366;2022-09-09T04:57:57;4.82;;;3.13;;
56457;SDS011;42360;42.918;12.366;2022-09-09T05:00:23;6.18;;;3.20;;
56457;SDS011;42360;42.918;12.366;2022-09-09T05:02:49;4.30;;;3.17;;
56457;SDS011;42360;42.918;12.366;2022-09-09T05:05:16;7.15;;;3.40;;
56457;SDS011;42360;42.918;12.366;2022-09-09T05:07:41;6.57;;;3.72;;
56457;SDS011;42360;42.918;12.366;2022-09-09T05:10:08;6.13;;;2.92;;
56457;SDS011;42360;42.918;12.366;2022-09-09T05:12:35;7.47;;;4.03;;
56457;SDS011;42360;42.918;12.366;2022-09-09T05:15:01;6.32;;;3.85;;
56457;SDS011;42360;42.918;12.366;2022-09-09T05:17:27;7.05;;;4.07;;
56457;SDS011;42360;42.918;12.366;2022-09-09T05:19:52;5.82;;;3.92;;
56457;SDS011;42360;42.918;12.366;2022-09-09T05:22:21;7.63;;;4.18;;
56457;SDS011;42360;42.918;12.366;2022-09-09T05:24:48;7.78;;;4.22;;
56457;SDS011;42360;42.918;12.366;2022-09-09T05:27:16;7.72;;;4.32;;
56457;SDS011;42360;42.918;12.366;2022-09-09T05:29:44;8.60;;;4.75;;
56457;SDS011;42360;42.918;12.366;2022-09-09T05:32:10;7.90;;;4.25;;
56457;SDS011;42360;42.918;12.366;2022-09-09T05:34:36;9.95;;;4.68;;
56457;SDS011;42360;42.918;12.366;2022-09-09T05:37:03;8.43;;;4.25;;
56457;SDS011;42360;42.918;12.366;2022-09-09T05:39:29;5.82;;;3.88;;
56457;SDS011;42360;42.918;12.366;2022-09-09T05:41:55;7.65;;;4.53;;
56457;SDS011;42360;42.918;12.366;2022-09-09T05:44:21;6.82;;;4.25;;
56457;SDS011;42360;42.918;12.366;2022-09-09T05:46:49;4.85;;;4.35;;
56457;SDS011;42360;42.918;12.366;2022-09-09T05:49:14;3.95;;;3.33;;
56457;SDS011;42360;42.918;12.366;2022-09-09T05:51:40;7.57;;;3.33;;
56457;SDS011;42360;42.918;12.366;2022-09-09T05:54:08;7.50;;;3.95;;
56457;SDS011;42360;42.918;12.366;2022-09-09T05:56:33;6.45;;;3.58;;
56457;SDS011;42360;42.918;12.366;2022-09-09T05:59:00;5.35;;;3.90;;
56457;SDS011;42360;42.918;12.366;2022-09-09T06:01:26;6.93;;;4.10;;
56457;SDS011;42360;42.918;12.366;2022-09-09T06:03:54;9.13;;;3.75;;
56457;SDS011;42360;42.918;12.366;2022-09-09T06:06:21;9.35;;;4.47;;
56457;SDS011;42360;42.918;12.366;2022-09-09T06:08:52;8.73;;;3.83;;
56457;SDS011;42360;42.918;12.366;2022-09-09T06:11:20;6.05;;;3.47;;
56457;SDS011;42360;42.918;12.366;2022-09-09T06:13:47;7.80;;;3.90;;
56457;SDS011;42360;42.918;12.366;2022-09-09T06:16:17;4.65;;;2.80;;
56457;SDS011;42360;42.918;12.366;2022-09-09T06:18:43;5.07;;;3.38;;
56457;SDS011;42360;42.918;12.366;2022-09-09T06:21:19;5.70;;;2.92;;
56457;SDS011;42360;42.918;12.366;2022-09-09T06:23:47;10.55;;;3.88;;
56457;SDS011;42360;42.918;12.366;2022-09-09T06:26:14;5.53;;;3.05;;
56457;SDS011;42360;42.918;12.366;2022-09-09T06:28:45;7.28;;;2.92;;
56457;SDS011;42360;42.918;12.366;2022-09-09T06:31:13;5.50;;;4.18;;
56457;SDS011;42360;42.918;12.366;2022-09-09T06:33:41;4.32;;;3.70;;
56457;SDS011;42360;42.918;12.366;2022-09-09T06:36:15;8.50;;;3.75;;
56457;SDS011;42360;42.918;12.366;2022-09-09T06:38:43;9.25;;;4.10;;
56457;SDS011;42360;42.918;12.366;2022-09-09T06:41:09;12.35;;;3.65;;
56457;SDS011;42360;42.918;12.366;2022-09-09T06:43:35;8.75;;;4.30;;
56457;SDS011;42360;42.918;12.366;2022-09-09T06:46:06;8.82;;;3.75;;
56457;SDS011;42360;42.918;12.366;2022-09-09T06:48:39;8.07;;;4.93;;
56457;SDS011;42360;42.918;12.366;2022-09-09T06:51:10;8.10;;;4.95;;
56457;SDS011;42360;42.918;12.366;2022-09-09T06:53:39;7.38;;;4.25;;
56457;SDS011;42360;42.918;12.366;2022-09-09T06:56:19;7.95;;;5.13;;
56457;SDS011;42360;42.918;12.366;2022-09-09T06:58:46;9.85;;;6.00;;
56457;SDS011;42360;42.918;12.366;2022-09-09T07:01:16;7.00;;;5.38;;
56457;SDS011;42360;42.918;12.366;2022-09-09T07:03:47;8.57;;;6.65;;
56457;SDS011;42360;42.918;12.366;2022-09-09T07:06:16;10.10;;;6.78;;
56457;SDS011;42360;42.918;12.366;2022-09-09T07:08:44;7.72;;;6.07;;
56457;SDS011;42360;42.918;12.366;2022-09-09T07:11:14;8.35;;;4.95;;
56457;SDS011;42360;42.918;12.366;2022-09-09T07:13:39;9.52;;;6.97;;
56457;SDS011;42360;42.918;12.366;2022-09-09T07:16:09;10.95;;;5.55;;
56457;SDS011;42360;42.918;12.366;2022-09-09T07:18:36;8.20;;;5.68;;
56457;SDS011;42360;42.918;12.366;2022-09-09T07:21:03;8.43;;;5.70;;
56457;SDS011;42360;42.918;12.366;2022-09-09T07:23:30;9.20;;;5.88;;
56457;SDS011;42360;42.918;12.366;2022-09-09T07:25:56;8.55;;;6.45;;
56457;SDS011;42360;42.918;12.366;2022-09-09T07:28:23;9.35;;;5.72;;
56457;SDS011;42360;42.918;12.366;2022-09-09T07:30:58;8.40;;;5.72;;
56457;SDS011;42360;42.918;12.366;2022-09-09T07:33:27;7.15;;;4.70;;
56457;SDS011;42360;42.918;12.366;2022-09-09T07:36:01;8.80;;;6.03;;
56457;SDS011;42360;42.918;12.366;2022-09-09T07:38:30;10.07;;;6.00;;
56457;SDS011;42360;42.918;12.366;2022-09-09T07:41:06;8.25;;;6.10;;
56457;SDS011;42360;42.918;12.366;2022-09-09T07:43:37;11.73;;;7.95;;
56457;SDS011;42360;42.918;12.366;2022-09-09T07:46:05;14.48;;;7.60;;
56457;SDS011;42360;42.918;12.366;2022-09-09T07:48:31;15.18;;;8.82;;
56457;SDS011;42360;42.918;12.366;2022-09-09T07:51:07;16.33;;;9.88;;
56457;SDS011;42360;42.918;12.366;2022-09-09T07:53:35;13.50;;;9.27;;
56457;SDS011;42360;42.918;12.366;2022-09-09T07:56:05;14.77;;;7.85;;
56457;SDS011;42360;42.918;12.366;2022-09-09T07:58:34;7.93;;;6.05;;
56457;SDS011;42360;42.918;12.366;2022-09-09T08:01:05;9.95;;;7.32;;
56457;SDS011;42360;42.918;12.366;2022-09-09T08:03:35;13.75;;;8.50;;
56457;SDS011;42360;42.918;12.366;2022-09-09T08:06:01;13.20;;;7.53;;
56457;SDS011;42360;42.918;12.366;2022-09-09T08:08:28;11.73;;;7.20;;
56457;SDS011;42360;42.918;12.366;2022-09-09T08:11:01;7.88;;;4.68;;
56457;SDS011;42360;42.918;12.366;2022-09-09T08:13:29;9.55;;;6.13;;
56457;SDS011;42360;42.918;12.366;2022-09-09T08:16:03;12.98;;;8.23;;
56457;SDS011;42360;42.918;12.366;2022-09-09T08:18:36;15.98;;;10.07;;
56457;SDS011;42360;42.918;12.366;2022-09-09T08:21:10;18.73;;;9.45;;
56457;SDS011;42360;42.918;12.366;2022-09-09T08:23:41;13.60;;;8.00;;
56457;SDS011;42360;42.918;12.366;2022-09-09T08:26:10;15.68;;;8.43;;
56457;SDS011;42360;42.918;12.366;2022-09-09T08:28:37;13.30;;;7.30;;
56457;SDS011;42360;42.918;12.366;2022-09-09T08:31:05;15.02;;;7.38;;
56457;SDS011;42360;42.918;12.366;2022-09-09T08:33:41;13.88;;;8.48;;
56457;SDS011;42360;42.918;12.366;2022-09-09T08:36:11;12.43;;;6.55;;
56457;SDS011;42360;42.918;12.366;2022-09-09T08:38:40;7.75;;;4.82;;
56457;SDS011;42360;42.918;12.366;2022-09-09T08:41:11;6.70;;;4.00;;
56457;SDS011;42360;42.918;12.366;2022-09-09T08:44:04;5.18;;;3.40;;
56457;SDS011;42360;42.918;12.366;2022-09-09T08:46:37;4.15;;;3.28;;
56457;SDS011;42360;42.918;12.366;2022-09-09T08:52:08;3.95;;;2.92;;
56457;SDS011;42360;42.918;12.366;2022-09-09T08:54:38;6.78;;;2.70;;
56457;SDS011;42360;42.918;12.366;2022-09-09T08:57:05;3.72;;;2.85;;
56457;SDS011;42360;42.918;12.366;2022-09-09T08:59:39;5.65;;;3.58;;
56457;SDS011;42360;42.918;12.366;2022-09-09T09:07:28;5.85;;;3.10;;
56457;SDS011;42360;42.918;12.366;2022-09-09T09:10:17;4.65;;;2.33;;
56457;SDS011;42360;42.918;12.366;2022-09-09T09:12:51;3.72;;;2.35;;
56457;SDS011;42360;42.918;12.366;2022-09-09T09:15:18;4.60;;;3.10;;
56457;SDS011;42360;42.918;12.366;2022-09-09T09:17:46;4.70;;;1.75;;
56457;SDS011;42360;42.918;12.366;2022-09-09T09:20:14;4.05;;;2.17;;
56457;SDS011;42360;42.918;12.366;2022-09-09T09:22:47;3.85;;;1.85;;
56457;SDS011;42360;42.918;12.366;2022-09-09T09:27:48;7.70;;;2.80;;
56457;SDS011;42360;42.918;12.366;2022-09-09T09:30:25;3.80;;;2.10;;
56457;SDS011;42360;42.918;12.366;2022-09-09T09:35:27;2.40;;;1.77;;
56457;SDS011;42360;42.918;12.366;2022-09-09T09:37:53;5.85;;;2.47;;
56457;SDS011;42360;42.918;12.366;2022-09-09T09:40:20;6.00;;;2.20;;
56457;SDS011;42360;42.918;12.366;2022-09-09T09:42:54;3.45;;;2.88;;
56457;SDS011;42360;42.918;12.366;2022-09-09T09:48:00;4.50;;;2.35;;
56457;SDS011;42360;42.918;12.366;2022-09-09T09:50:31;10.20;;;2.75;;
56457;SDS011;42360;42.918;12.366;2022-09-09T09:52:58;6.40;;;2.88;;
56457;SDS011;42360;42.918;12.366;2022-09-09T09:55:25;6.80;;;2.63;;
56457;SDS011;42360;42.918;12.366;2022-09-09T09:57:51;1.92;;;1.80;;
56457;SDS011;42360;42.918;12.366;2022-09-09T10:00:19;3.00;;;1.90;;
56457;SDS011;42360;42.918;12.366;2022-09-09T10:02:46;4.53;;;1.90;;
56457;SDS011;42360;42.918;12.366;2022-09-09T10:05:14;3.90;;;1.90;;
56457;SDS011;42360;42.918;12.366;2022-09-09T10:07:45;4.80;;;1.80;;
56457;SDS011;42360;42.918;12.366;2022-09-09T10:10:45;7.85;;;2.20;;
56457;SDS011;42360;42.918;12.366;2022-09-09T10:15:55;5.93;;;2.15;;
56457;SDS011;42360;42.918;12.366;2022-09-09T10:18:36;4.85;;;2.40;;
56457;SDS011;42360;42.918;12.366;2022-09-09T10:24:02;5.68;;;2.65;;
56457;SDS011;42360;42.918;12.366;2022-09-09T10:26:44;4.82;;;2.60;;
56457;SDS011;42360;42.918;12.366;2022-09-09T10:29:22;4.70;;;2.22;;
56457;SDS011;42360;42.918;12.366;2022-09-09T10:35:09;8.15;;;2.75;;
56457;SDS011;42360;42.918;12.366;2022-09-09T10:37:41;5.75;;;2.95;;
56457;SDS011;42360;42.918;12.366;2022-09-09T10:43:10;3.20;;;2.05;;
56457;SDS011;42360;42.918;12.366;2022-09-09T10:48:43;3.78;;;2.05;;
56457;SDS011;42360;42.918;12.366;2022-09-09T10:51:25;1.85;;;0.93;;
56457;SDS011;42360;42.918;12.366;2022-09-09T10:54:01;3.80;;;2.10;;
56457;SDS011;42360;42.918;12.366;2022-09-09T10:56:39;3.88;;;0.98;;
56457;SDS011;42360;42.918;12.366;2022-09-09T10:59:17;3.78;;;2.08;;
56457;SDS011;42360;42.918;12.366;2022-09-09T11:01:50;2.05;;;1.40;;
56457;SDS011;42360;42.918;12.366;2022-09-09T11:04:35;2.75;;;1.00;;
56457;SDS011;42360;42.918;12.366;2022-09-09T11:07:06;3.50;;;1.25;;
56457;SDS011;42360;42.918;12.366;2022-09-09T11:09:39;5.75;;;1.20;;
56457;SDS011;42360;42.918;12.366;2022-09-09T11:12:15;3.40;;;0.80;;
56457;SDS011;42360;42.918;12.366;2022-09-09T11:14:45;2.83;;;1.10;;
56457;SDS011;42360;42.918;12.366;2022-09-09T11:17:18;6.10;;;1.50;;
56457;SDS011;42360;42.918;12.366;2022-09-09T11:20:05;2.13;;;0.95;;
56457;SDS011;42360;42.918;12.366;2022-09-09T11:22:33;4.38;;;1.05;;
56457;SDS011;42360;42.918;12.366;2022-09-09T11:33:41;1.00;;;0.70;;
56457;SDS011;42360;42.918;12.366;2022-09-09T11:41:53;3.08;;;1.00;;
56457;SDS011;42360;42.918;12.366;2022-09-09T11:44:20;3.35;;;1.00;;
56457;SDS011;42360;42.918;12.366;2022-09-09T11:46:51;1.83;;;0.73;;
56457;SDS011;42360;42.918;12.366;2022-09-09T11:49:30;1.15;;;0.88;;
56457;SDS011;42360;42.918;12.366;2022-09-09T11:52:22;3.05;;;0.80;;
56457;SDS011;42360;42.918;12.366;2022-09-09T11:57:59;2.35;;;0.88;;
56457;SDS011;42360;42.918;12.366;2022-09-09T12:03:00;2.20;;;0.82;;
56457;SDS011;42360;42.918;12.366;2022-09-09T12:08:24;4.90;;;0.80;;
56457;SDS011;42360;42.918;12.366;2022-09-09T12:10:53;1.77;;;0.55;;
56457;SDS011;42360;42.918;12.366;2022-09-09T12:13:21;1.10;;;0.70;;
56457;SDS011;42360;42.918;12.366;2022-09-09T12:15:50;2.92;;;0.70;;
56457;SDS011;42360;42.918;12.366;2022-09-09T12:18:26;2.25;;;0.43;;
56457;SDS011;42360;42.918;12.366;2022-09-09T12:23:51;0.98;;;0.50;;
56457;SDS011;42360;42.918;12.366;2022-09-09T12:31:59;2.22;;;0.55;;
56457;SDS011;42360;42.918;12.366;2022-09-09T12:34:39;1.02;;;0.52;;
56457;SDS011;42360;42.918;12.366;2022-09-09T12:37:36;2.38;;;0.75;;
56457;SDS011;42360;42.918;12.366;2022-09-09T12:40:05;2.97;;;0.70;;
56457;SDS011;42360;42.918;12.366;2022-09-09T12:42:31;1.48;;;0.60;;
56457;SDS011;42360;42.918;12.366;2022-09-09T12:44:59;0.95;;;0.43;;
56457;SDS011;42360;42.918;12.366;2022-09-09T12:47:30;1.33;;;0.60;;
56457;SDS011;42360;42.918;12.366;2022-09-09T12:57:51;1.58;;;0.60;;
56457;SDS011;42360;42.918;12.366;2022-09-09T13:00:21;1.75;;;0.52;;
56457;SDS011;42360;42.918;12.366;2022-09-09T13:02:52;2.15;;;0.73;;
56457;SDS011;42360;42.918;12.366;2022-09-09T13:05:24;1.05;;;0.50;;
56457;SDS011;42360;42.918;12.366;2022-09-09T13:08:02;1.08;;;0.70;;
56457;SDS011;42360;42.918;12.366;2022-09-09T13:10:35;0.30;;;0.30;;
56457;SDS011;42360;42.918;12.366;2022-09-09T13:13:12;0.90;;;0.50;;
56457;SDS011;42360;42.918;12.366;2022-09-09T13:16:43;2.28;;;0.60;;
56457;SDS011;42360;42.918;12.366;2022-09-09T13:19:07;1.85;;;0.52;;
56457;SDS011;42360;42.918;12.366;2022-09-09T13:21:34;3.40;;;0.60;;
56457;SDS011;42360;42.918;12.366;2022-09-09T13:24:03;1.17;;;0.40;;
56457;SDS011;42360;42.918;12.366;2022-09-09T13:26:32;1.00;;;0.60;;
56457;SDS011;42360;42.918;12.366;2022-09-09T13:29:18;2.10;;;0.60;;
56457;SDS011;42360;42.918;12.366;2022-09-09T13:31:44;1.95;;;0.60;;
56457;SDS011;42360;42.918;12.366;2022-09-09T13:34:13;0.85;;;0.60;;
56457;SDS011;42360;42.918;12.366;2022-09-09T13:36:48;2.67;;;0.50;;
56457;SDS011;42360;42.918;12.366;2022-09-09T13:39:17;1.80;;;0.70;;
56457;SDS011;42360;42.918;12.366;2022-09-09T13:41:44;0.93;;;0.60;;
56457;SDS011;42360;42.918;12.366;2022-09-09T13:44:43;1.40;;;0.55;;
56457;SDS011;42360;42.918;12.366;2022-09-09T13:47:15;1.70;;;0.63;;
56457;SDS011;42360;42.918;12.366;2022-09-09T13:49:44;2.33;;;1.00;;
56457;SDS011;42360;42.918;12.366;2022-09-09T13:52:17;2.28;;;0.60;;
56457;SDS011;42360;42.918;12.366;2022-09-09T13:54:50;1.13;;;0.50;;
56457;SDS011;42360;42.918;12.366;2022-09-09T13:57:18;2.00;;;0.60;;
56457;SDS011;42360;42.918;12.366;2022-09-09T13:59:45;1.67;;;0.70;;
56457;SDS011;42360;42.918;12.366;2022-09-09T14:02:11;0.85;;;0.50;;
56457;SDS011;42360;42.918;12.366;2022-09-09T14:04:37;2.85;;;0.80;;
56457;SDS011;42360;42.918;12.366;2022-09-09T14:07:05;3.47;;;0.73;;
56457;SDS011;42360;42.918;12.366;2022-09-09T14:09:31;1.27;;;0.50;;
56457;SDS011;42360;42.918;12.366;2022-09-09T14:11:56;1.25;;;0.50;;
56457;SDS011;42360;42.918;12.366;2022-09-09T14:14:22;2.10;;;0.60;;
56457;SDS011;42360;42.918;12.366;2022-09-09T14:16:48;2.08;;;0.60;;
56457;SDS011;42360;42.918;12.366;2022-09-09T14:19:14;2.88;;;1.38;;
56457;SDS011;42360;42.918;12.366;2022-09-09T14:21:39;3.70;;;0.70;;
56457;SDS011;42360;42.918;12.366;2022-09-09T14:24:05;1.33;;;0.50;;
56457;SDS011;42360;42.918;12.366;2022-09-09T14:26:31;4.07;;;0.75;;
56457;SDS011;42360;42.918;12.366;2022-09-09T14:28:57;1.48;;;0.60;;
56457;SDS011;42360;42.918;12.366;2022-09-09T14:31:23;3.22;;;0.50;;
56457;SDS011;42360;42.918;12.366;2022-09-09T14:33:50;1.08;;;0.60;;
56457;SDS011;42360;42.918;12.366;2022-09-09T14:36:16;0.95;;;0.52;;
56457;SDS011;42360;42.918;12.366;2022-09-09T14:38:41;4.45;;;0.93;;
56457;SDS011;42360;42.918;12.366;2022-09-09T14:41:11;2.17;;;0.70;;
56457;SDS011;42360;42.918;12.366;2022-09-09T14:43:38;0.77;;;0.60;;
56457;SDS011;42360;42.918;12.366;2022-09-09T14:46:08;1.08;;;0.70;;
56457;SDS011;42360;42.918;12.366;2022-09-09T14:48:35;2.38;;;0.63;;
56457;SDS011;42360;42.918;12.366;2022-09-09T14:51:05;3.53;;;0.75;;
56457;SDS011;42360;42.918;12.366;2022-09-09T14:53:53;2.25;;;0.60;;
56457;SDS011;42360;42.918;12.366;2022-09-09T14:56:23;0.82;;;0.68;;
56457;SDS011;42360;42.918;12.366;2022-09-09T14:58:52;1.30;;;0.50;;
56457;SDS011;42360;42.918;12.366;2022-09-09T15:01:19;2.65;;;0.63;;
56457;SDS011;42360;42.918;12.366;2022-09-09T15:03:52;1.65;;;0.70;;
56457;SDS011;42360;42.918;12.366;2022-09-09T15:06:22;1.90;;;0.60;;
56457;SDS011;42360;42.918;12.366;2022-09-09T15:08:49;1.48;;;0.60;;
56457;SDS011;42360;42.918;12.366;2022-09-09T15:11:15;0.80;;;0.50;;
56457;SDS011;42360;42.918;12.366;2022-09-09T15:13:41;1.83;;;0.70;;
56457;SDS011;42360;42.918;12.366;2022-09-09T15:16:14;3.13;;;0.70;;
56457;SDS011;42360;42.918;12.366;2022-09-09T15:18:41;2.55;;;0.70;;
56457;SDS011;42360;42.918;12.366;2022-09-09T15:21:17;2.60;;;1.00;;
56457;SDS011;42360;42.918;12.366;2022-09-09T15:23:44;1.95;;;0.63;;
56457;SDS011;42360;42.918;12.366;2022-09-09T15:26:10;1.75;;;0.70;;
56457;SDS011;42360;42.918;12.366;2022-09-09T15:28:39;1.67;;;0.73;;
56457;SDS011;42360;42.918;12.366;2022-09-09T15:31:15;1.25;;;0.60;;
56457;SDS011;42360;42.918;12.366;2022-09-09T15:34:04;0.90;;;0.50;;
56457;SDS011;42360;42.918;12.366;2022-09-09T15:36:42;1.45;;;0.60;;
56457;SDS011;42360;42.918;12.366;2022-09-09T15:39:09;1.27;;;0.43;;
56457;SDS011;42360;42.918;12.366;2022-09-09T15:41:38;1.90;;;0.73;;
56457;SDS011;42360;42.918;12.366;2022-09-09T15:44:04;0.82;;;0.45;;
56457;SDS011;42360;42.918;12.366;2022-09-09T15:46:32;3.88;;;0.90;;
56457;SDS011;42360;42.918;12.366;2022-09-09T15:49:19;2.13;;;0.60;;
56457;SDS011;42360;42.918;12.366;2022-09-09T15:51:53;0.50;;;0.40;;
56457;SDS011;42360;42.918;12.366;2022-09-09T15:54:21;1.23;;;0.50;;
56457;SDS011;42360;42.918;12.366;2022-09-09T15:56:52;0.98;;;0.50;;
56457;SDS011;42360;42.918;12.366;2022-09-09T15:59:21;1.42;;;0.68;;
56457;SDS011;42360;42.918;12.366;2022-09-09T16:01:48;1.63;;;0.70;;
56457;SDS011;42360;42.918;12.366;2022-09-09T16:04:16;2.13;;;0.50;;
56457;SDS011;42360;42.918;12.366;2022-09-09T16:06:48;1.10;;;0.50;;
56457;SDS011;42360;42.918;12.366;2022-09-09T16:09:16;1.38;;;0.57;;
56457;SDS011;42360;42.918;12.366;2022-09-09T16:11:41;2.05;;;0.55;;
56457;SDS011;42360;42.918;12.366;2022-09-09T16:14:07;1.17;;;0.52;;
56457;SDS011;42360;42.918;12.366;2022-09-09T16:16:33;3.13;;;0.80;;
56457;SDS011;42360;42.918;12.366;2022-09-09T16:19:01;3.05;;;0.77;;
56457;SDS011;42360;42.918;12.366;2022-09-09T16:21:31;1.27;;;0.63;;
56457;SDS011;42360;42.918;12.366;2022-09-09T16:24:02;1.73;;;0.70;;
56457;SDS011;42360;42.918;12.366;2022-09-09T16:26:29;0.70;;;0.50;;
56457;SDS011;42360;42.918;12.366;2022-09-09T16:28:56;0.63;;;0.60;;
56457;SDS011;42360;42.918;12.366;2022-09-09T16:31:24;0.90;;;0.52;;
56457;SDS011;42360;42.918;12.366;2022-09-09T16:33:51;3.88;;;0.90;;
56457;SDS011;42360;42.918;12.366;2022-09-09T16:36:17;1.63;;;0.60;;